createdAt,value
2022-07-28T00:00:18.233Z,1.42
2022-07-28T00:03:05.557Z,1.10
2022-07-28T00:05:53.142Z,1.00
2022-07-28T00:08:40.382Z,1.20
2022-07-28T00:11:29.238Z,1.35
2022-07-28T00:14:16.651Z,1.10
2022-07-28T00:17:04.453Z,1.20
2022-07-28T00:19:51.965Z,1.20
2022-07-28T00:22:43.847Z,1.25
2022-07-28T00:25:31.112Z,1.20
2022-07-28T00:28:19.977Z,1.25
2022-07-28T00:31:10.906Z,1.17
2022-07-28T00:34:01.243Z,1.10
2022-07-28T00:36:48.746Z,1.33
2022-07-28T00:39:36.556Z,1.20
2022-07-28T00:42:23.588Z,1.33
2022-07-28T00:45:13.222Z,1.00
2022-07-28T00:48:00.389Z,1.10
2022-07-28T00:50:48.479Z,1.13
2022-07-28T00:53:35.960Z,1.05
2022-07-28T00:56:23.665Z,1.15
2022-07-28T00:59:11.218Z,1.23
2022-07-28T01:02:00.215Z,1.02
2022-07-28T01:04:47.746Z,1.02
2022-07-28T01:07:44.171Z,1.40
2022-07-28T01:10:41.102Z,1.25
2022-07-28T01:13:41.068Z,1.20
2022-07-28T01:16:29.724Z,1.20
2022-07-28T01:19:36.390Z,1.33
2022-07-28T01:22:27.318Z,1.50
2022-07-28T01:25:24.954Z,1.00
2022-07-28T01:28:27.308Z,1.15
2022-07-28T01:31:23.705Z,1.10
2022-07-28T01:34:16.353Z,0.95
2022-07-28T01:37:09.965Z,0.93
2022-07-28T01:40:02.583Z,1.30
2022-07-28T01:42:56.115Z,1.30
2022-07-28T01:45:46.206Z,1.20
2022-07-28T01:48:36.148Z,1.40
2022-07-28T01:51:26.398Z,1.40
2022-07-28T01:54:15.262Z,1.17
2022-07-28T01:57:04.529Z,0.93
2022-07-28T01:59:53.670Z,1.20
2022-07-28T02:02:44.458Z,1.17
2022-07-28T02:05:34.454Z,1.15
2022-07-28T02:08:24.131Z,1.33
2022-07-28T02:11:28.738Z,0.95
2022-07-28T02:14:20.485Z,1.10
2022-07-28T02:17:12.953Z,1.15
2022-07-28T02:20:01.226Z,0.98
2022-07-28T02:22:52.057Z,1.40
2022-07-28T02:25:41.173Z,1.20
2022-07-28T02:28:29.983Z,1.50
2022-07-28T02:31:26.153Z,1.38
2022-07-28T02:34:17.588Z,1.10
2022-07-28T02:37:08.944Z,1.30
2022-07-28T02:40:01.478Z,1.40
2022-07-28T02:42:51.493Z,1.33
2022-07-28T02:45:44.545Z,1.20
2022-07-28T02:48:36.988Z,1.30
2022-07-28T02:51:26.377Z,1.20
2022-07-28T02:54:14.875Z,1.20
2022-07-28T02:57:04.748Z,1.15
2022-07-28T02:59:52.589Z,1.20
2022-07-28T03:02:41.402Z,1.30
2022-07-28T03:05:29.307Z,1.13
2022-07-28T03:08:17.732Z,1.00
2022-07-28T03:11:09.707Z,1.10
2022-07-28T03:13:58.285Z,0.93
2022-07-28T03:16:50.038Z,1.10
2022-07-28T03:19:40.732Z,1.33
2022-07-28T03:22:27.895Z,1.42
2022-07-28T03:25:29.996Z,1.42
2022-07-28T03:28:21.498Z,1.10
2022-07-28T03:31:12.956Z,1.20
2022-07-28T03:34:00.659Z,1.25
2022-07-28T03:36:52.730Z,1.27
2022-07-28T03:39:47.034Z,1.40
2022-07-28T03:42:35.252Z,1.20
2022-07-28T03:45:22.900Z,1.30
2022-07-28T03:48:11.728Z,1.13
2022-07-28T03:50:59.229Z,1.45
2022-07-28T03:53:46.577Z,1.20
2022-07-28T03:56:34.031Z,1.10
2022-07-28T03:59:21.550Z,1.27
2022-07-28T04:02:09.030Z,1.30
2022-07-28T04:04:57.505Z,1.35
2022-07-28T04:07:46.155Z,1.20
2022-07-28T04:10:33.731Z,1.58
2022-07-28T04:13:21.529Z,1.45
2022-07-28T04:16:09.041Z,1.42
2022-07-28T04:18:56.180Z,1.30
2022-07-28T04:21:44.651Z,1.40
2022-07-28T04:24:31.863Z,1.50
2022-07-28T04:27:19.104Z,1.20
2022-07-28T04:30:11.028Z,1.48
2022-07-28T04:32:58.173Z,1.85
2022-07-28T04:35:46.115Z,1.40
2022-07-28T04:38:36.279Z,1.33
2022-07-28T04:41:23.798Z,1.20
2022-07-28T04:44:12.297Z,1.40
2022-07-28T04:46:59.832Z,1.50
2022-07-28T04:49:46.934Z,1.27
2022-07-28T04:52:34.680Z,1.20
2022-07-28T04:55:23.563Z,1.50
2022-07-28T04:58:12.541Z,1.65
2022-07-28T05:00:59.801Z,1.20
2022-07-28T05:03:47.549Z,1.33
2022-07-28T05:06:36.569Z,1.40
2022-07-28T05:09:24.161Z,1.40
2022-07-28T05:12:12.641Z,1.38
2022-07-28T05:15:00.619Z,1.20
2022-07-28T05:17:47.770Z,1.50
2022-07-28T05:20:35.567Z,1.50
2022-07-28T05:23:22.796Z,1.50
2022-07-28T05:26:10.181Z,1.52
2022-07-28T05:28:58.769Z,1.52
2022-07-28T05:31:46.075Z,1.45
2022-07-28T05:34:33.069Z,1.50
2022-07-28T05:37:20.640Z,1.42
2022-07-28T05:40:13.788Z,1.30
2022-07-28T05:43:00.875Z,1.55
2022-07-28T05:45:49.700Z,1.50
2022-07-28T05:48:36.851Z,1.67
2022-07-28T05:51:26.767Z,1.55
2022-07-28T05:54:14.743Z,1.80
2022-07-28T05:57:02.271Z,1.88
2022-07-28T05:59:49.287Z,1.50
2022-07-28T06:02:38.349Z,1.58
2022-07-28T06:05:26.324Z,1.40
2022-07-28T06:08:13.609Z,1.50
2022-07-28T06:11:02.086Z,1.60
2022-07-28T06:13:49.525Z,1.33
2022-07-28T06:16:37.141Z,1.63
2022-07-28T06:19:25.873Z,1.50
2022-07-28T06:22:15.374Z,1.55
2022-07-28T06:25:02.726Z,1.50
2022-07-28T06:27:52.464Z,1.67
2022-07-28T06:30:39.938Z,1.70
2022-07-28T06:33:27.003Z,1.70
2022-07-28T06:36:15.746Z,1.65
2022-07-28T06:39:03.344Z,2.10
2022-07-28T06:41:50.645Z,2.00
2022-07-28T06:44:57.961Z,1.88
2022-07-28T06:47:47.291Z,1.90
2022-07-28T06:50:35.445Z,1.88
2022-07-28T06:53:24.480Z,1.80
2022-07-28T06:56:13.871Z,1.90
2022-07-28T06:59:03.370Z,1.98
2022-07-28T07:01:50.606Z,1.63
2022-07-28T07:04:38.427Z,1.90
2022-07-28T07:07:26.368Z,2.03
2022-07-28T07:10:14.988Z,2.30
2022-07-28T07:13:02.332Z,1.92
2022-07-28T07:15:49.487Z,2.00
2022-07-28T07:18:36.657Z,2.20
2022-07-28T07:21:24.130Z,1.80
2022-07-28T07:24:13.431Z,1.92
2022-07-28T07:27:02.530Z,2.20
2022-07-28T07:29:49.819Z,2.05
2022-07-28T07:32:37.677Z,1.90
2022-07-28T07:35:25.013Z,2.03
2022-07-28T07:38:12.154Z,2.20
2022-07-28T07:41:00.733Z,1.92
2022-07-28T07:43:50.178Z,1.90
2022-07-28T07:46:38.544Z,2.20
2022-07-28T07:49:25.950Z,2.50
2022-07-28T07:52:33.343Z,2.20
2022-07-28T07:55:20.847Z,1.83
2022-07-28T07:58:08.361Z,1.80
2022-07-28T08:00:57.127Z,2.10
2022-07-28T08:03:45.010Z,2.50
2022-07-28T08:06:37.369Z,1.88
2022-07-28T08:09:27.024Z,2.20
2022-07-28T08:12:14.576Z,2.00
2022-07-28T08:15:01.767Z,2.08
2022-07-28T08:17:50.281Z,2.25
2022-07-28T08:20:37.703Z,2.47
2022-07-28T08:23:28.468Z,2.13
2022-07-28T08:26:15.624Z,2.38
2022-07-28T08:29:03.186Z,2.10
2022-07-28T08:31:50.789Z,2.42
2022-07-28T08:34:39.739Z,2.05
2022-07-28T08:37:26.899Z,2.30
2022-07-28T08:40:15.765Z,2.25
2022-07-28T08:43:12.201Z,2.35
2022-07-28T08:46:02.127Z,2.35
2022-07-28T08:48:50.232Z,2.30
2022-07-28T08:51:39.540Z,2.30
2022-07-28T08:54:29.520Z,2.28
2022-07-28T08:57:22.258Z,2.35
2022-07-28T09:00:11.818Z,2.30
2022-07-28T09:02:59.821Z,2.30
2022-07-28T09:05:47.599Z,2.03
2022-07-28T09:08:36.527Z,2.22
2022-07-28T09:11:23.696Z,2.20
2022-07-28T09:14:11.401Z,2.22
2022-07-28T09:17:01.675Z,2.50
2022-07-28T09:19:48.704Z,2.35
2022-07-28T09:22:36.446Z,2.40
2022-07-28T09:25:25.589Z,2.20
2022-07-28T09:28:15.828Z,2.17
2022-07-28T09:31:09.475Z,2.60
2022-07-28T09:34:02.182Z,2.40
2022-07-28T09:36:49.409Z,2.65
2022-07-28T09:39:38.322Z,2.50
2022-07-28T09:42:27.343Z,2.40
2022-07-28T09:45:24.047Z,2.70
2022-07-28T09:48:14.040Z,2.70
2022-07-28T09:51:14.134Z,2.50
2022-07-28T09:54:12.897Z,2.60
2022-07-28T09:57:00.744Z,2.42
2022-07-28T09:59:52.149Z,2.63
2022-07-28T10:02:50.830Z,2.80
2022-07-28T10:05:42.040Z,2.50
2022-07-28T10:08:47.215Z,2.30
2022-07-28T10:11:39.445Z,2.33
2022-07-28T10:14:33.982Z,2.28
2022-07-28T10:17:31.263Z,2.05
2022-07-28T10:20:18.433Z,2.40
2022-07-28T10:23:07.768Z,2.40
2022-07-28T10:25:58.061Z,2.40
2022-07-28T10:28:51.362Z,2.45
2022-07-28T10:31:46.990Z,2.72
2022-07-28T10:34:39.411Z,2.78
2022-07-28T10:37:29.845Z,2.33
2022-07-28T10:40:20.113Z,2.40
2022-07-28T10:43:07.559Z,2.80
2022-07-28T10:46:05.549Z,2.70
2022-07-28T10:48:55.355Z,2.45
2022-07-28T10:52:04.963Z,2.72
2022-07-28T10:55:07.672Z,2.38
2022-07-28T10:58:11.240Z,2.47
2022-07-28T11:01:05.589Z,2.45
2022-07-28T11:03:53.328Z,2.88
2022-07-28T11:06:42.428Z,2.33
2022-07-28T11:09:31.164Z,2.53
2022-07-28T11:12:48.243Z,2.50
2022-07-28T11:15:38.305Z,2.13
2022-07-28T11:18:25.908Z,2.55
2022-07-28T11:21:16.589Z,2.30
2022-07-28T11:24:04.382Z,2.22
2022-07-28T11:26:54.359Z,2.30
2022-07-28T11:29:47.985Z,2.50
2022-07-28T11:33:02.433Z,2.25
2022-07-28T11:36:02.664Z,2.28
2022-07-28T11:39:23.515Z,2.38
2022-07-28T11:42:32.416Z,2.00
2022-07-28T11:45:26.509Z,2.22
2022-07-28T11:48:26.403Z,2.05
2022-07-28T11:51:14.640Z,2.22
2022-07-28T11:54:02.909Z,2.17
2022-07-28T11:56:59.327Z,2.33
2022-07-28T11:59:53.366Z,2.13
2022-07-28T12:02:42.665Z,2.30
2022-07-28T12:05:34.340Z,2.20
2022-07-28T12:08:29.639Z,2.47
2022-07-28T12:11:17.338Z,2.50
2022-07-28T12:14:10.053Z,2.30
2022-07-28T12:16:58.877Z,2.45
2022-07-28T12:19:46.114Z,2.42
2022-07-28T12:22:34.237Z,2.30
2022-07-28T12:25:22.789Z,2.70
2022-07-28T12:28:20.345Z,2.70
2022-07-28T12:31:15.054Z,2.28
2022-07-28T12:34:07.692Z,2.40
2022-07-28T12:36:57.079Z,2.55
2022-07-28T12:39:52.632Z,2.38
2022-07-28T12:42:40.178Z,2.65
2022-07-28T12:45:28.616Z,2.13
2022-07-28T12:48:18.815Z,2.40
2022-07-28T12:51:08.097Z,2.20
2022-07-28T12:53:58.737Z,2.40
2022-07-28T12:56:47.479Z,2.42
2022-07-28T12:59:36.018Z,2.20
2022-07-28T13:02:37.513Z,2.35
2022-07-28T13:05:54.562Z,2.50
2022-07-28T13:08:45.181Z,2.50
2022-07-28T13:11:45.838Z,2.38
2022-07-28T13:14:41.255Z,2.20
2022-07-28T13:17:31.863Z,2.75
2022-07-28T13:20:19.423Z,2.40
2022-07-28T13:23:06.708Z,2.03
2022-07-28T13:25:56.244Z,2.70
2022-07-28T13:28:44.258Z,2.45
2022-07-28T13:31:33.716Z,2.25
2022-07-28T13:34:20.996Z,2.50
2022-07-28T13:37:08.201Z,2.63
2022-07-28T13:39:55.602Z,2.65
2022-07-28T13:42:53.367Z,2.88
2022-07-28T13:45:47.422Z,2.45
2022-07-28T13:48:36.052Z,2.47
2022-07-28T13:51:23.383Z,2.75
2022-07-28T13:54:10.912Z,2.78
2022-07-28T13:56:58.195Z,2.30
2022-07-28T13:59:47.159Z,2.17
2022-07-28T14:02:35.147Z,2.70
2022-07-28T14:05:22.905Z,2.53
2022-07-28T14:08:10.497Z,2.63
2022-07-28T14:11:04.606Z,2.30
2022-07-28T14:13:55.505Z,2.50
2022-07-28T14:16:45.010Z,2.50
2022-07-28T14:19:39.100Z,2.88
2022-07-28T14:22:27.174Z,2.40
2022-07-28T14:25:20.600Z,2.58
2022-07-28T14:28:08.553Z,2.83
2022-07-28T14:30:55.708Z,2.35
2022-07-28T14:33:48.350Z,2.40
2022-07-28T14:36:37.863Z,2.63
2022-07-28T14:39:25.277Z,2.90
2022-07-28T14:42:13.133Z,2.83
2022-07-28T14:45:02.362Z,2.58
2022-07-28T14:47:49.546Z,2.90
2022-07-28T14:50:38.220Z,2.75
2022-07-28T14:53:28.124Z,3.10
2022-07-28T14:56:16.210Z,2.90
2022-07-28T14:59:03.330Z,3.00
2022-07-28T15:01:51.003Z,2.63
2022-07-28T15:04:38.106Z,2.50
2022-07-28T15:07:26.835Z,2.72
2022-07-28T15:10:14.165Z,2.53
2022-07-28T15:13:01.422Z,2.83
2022-07-28T15:15:49.111Z,2.83
2022-07-28T15:18:36.053Z,2.58
2022-07-28T15:21:23.345Z,3.03
2022-07-28T15:24:12.255Z,3.00
2022-07-28T15:27:00.563Z,2.65
2022-07-28T15:29:52.168Z,2.28
2022-07-28T15:32:54.634Z,2.53
2022-07-28T15:35:57.880Z,2.65
2022-07-28T15:38:48.923Z,2.40
2022-07-28T15:41:39.300Z,2.30
2022-07-28T15:44:26.642Z,2.50
2022-07-28T15:47:13.872Z,2.50
2022-07-28T15:50:01.017Z,2.50
2022-07-28T15:52:48.320Z,3.20
2022-07-28T15:55:35.387Z,2.67
2022-07-28T15:58:26.319Z,2.60
2022-07-28T16:01:14.149Z,2.83
2022-07-28T16:04:02.439Z,2.58
2022-07-28T16:07:07.128Z,2.53
2022-07-28T16:09:56.166Z,2.47
2022-07-28T16:12:43.621Z,2.33
2022-07-28T16:15:32.534Z,2.38
2022-07-28T16:18:19.751Z,2.38
2022-07-28T16:21:08.652Z,2.60
2022-07-28T16:23:55.786Z,2.38
2022-07-28T16:26:42.968Z,2.40
2022-07-28T16:29:30.230Z,2.15
2022-07-28T16:32:19.001Z,2.53
2022-07-28T16:35:08.524Z,2.30
2022-07-28T16:37:55.808Z,2.60
2022-07-28T16:40:42.962Z,2.42
2022-07-28T16:43:30.377Z,2.30
2022-07-28T16:46:17.840Z,2.40
2022-07-28T16:49:06.729Z,2.42
2022-07-28T16:51:55.029Z,2.53
2022-07-28T16:54:42.241Z,2.42
2022-07-28T16:57:29.497Z,2.50
2022-07-28T17:00:18.195Z,2.47
2022-07-28T17:03:05.363Z,2.63
2022-07-28T17:05:55.317Z,2.38
2022-07-28T17:08:42.362Z,2.20
2022-07-28T17:11:29.729Z,2.50
2022-07-28T17:14:19.052Z,2.53
2022-07-28T17:17:06.450Z,2.50
2022-07-28T17:19:53.895Z,2.58
2022-07-28T17:22:42.921Z,2.92
2022-07-28T17:28:37.370Z,2.30
2022-07-28T17:31:24.494Z,2.67
2022-07-28T17:34:11.937Z,2.50
2022-07-28T17:36:59.368Z,2.47
2022-07-28T17:39:48.031Z,2.40
2022-07-28T17:42:35.445Z,2.50
2022-07-28T17:45:24.126Z,2.60
2022-07-28T17:48:11.546Z,2.58
2022-07-28T17:50:58.924Z,2.50
2022-07-28T17:53:46.207Z,2.03
2022-07-28T17:56:36.631Z,2.63
2022-07-28T17:59:24.579Z,2.50
2022-07-28T18:02:21.564Z,2.10
2022-07-28T18:05:10.039Z,2.63
2022-07-28T18:07:59.302Z,2.45
2022-07-28T18:10:47.662Z,2.13
2022-07-28T18:13:36.133Z,2.72
2022-07-28T18:16:23.384Z,2.22
2022-07-28T18:19:10.381Z,2.13
2022-07-28T18:21:57.797Z,2.42
2022-07-28T18:24:45.198Z,2.03
2022-07-28T18:27:32.974Z,2.30
2022-07-28T18:30:21.976Z,2.40
2022-07-28T18:33:09.415Z,2.50
2022-07-28T18:35:56.541Z,2.17
2022-07-28T18:38:43.672Z,2.08
2022-07-28T18:41:34.518Z,2.55
2022-07-28T18:44:34.323Z,2.50
2022-07-28T18:47:22.781Z,2.60
2022-07-28T18:50:27.871Z,2.70
2022-07-28T18:53:19.010Z,2.80
2022-07-28T18:56:06.728Z,2.40
2022-07-28T18:58:56.096Z,2.40
2022-07-28T19:01:43.468Z,2.53
2022-07-28T19:04:32.054Z,2.53
2022-07-28T19:07:19.607Z,2.40
2022-07-28T19:10:09.679Z,2.33
2022-07-28T19:12:56.972Z,2.50
2022-07-28T19:15:44.383Z,2.30
2022-07-28T19:18:31.884Z,2.33
2022-07-28T19:21:20.359Z,2.42
2022-07-28T19:24:10.358Z,2.35
2022-07-28T19:26:58.093Z,2.30
2022-07-28T19:29:45.109Z,2.35
2022-07-28T19:32:32.472Z,2.35
2022-07-28T19:35:19.990Z,2.45
2022-07-28T19:38:08.585Z,2.25
2022-07-28T19:40:56.038Z,2.42
2022-07-28T19:43:43.311Z,2.35
2022-07-28T19:46:31.063Z,2.22
2022-07-28T19:49:18.708Z,2.53
2022-07-28T19:52:06.340Z,2.50
2022-07-28T19:54:55.824Z,2.65
2022-07-28T19:57:45.216Z,2.13
2022-07-28T20:00:32.729Z,2.75
2022-07-28T20:04:02.101Z,2.50
2022-07-28T20:06:29.158Z,2.45
2022-07-28T20:09:17.735Z,2.58
2022-07-28T20:12:07.890Z,2.35
2022-07-28T20:14:56.786Z,2.40
2022-07-28T20:17:44.162Z,2.53
2022-07-28T20:20:31.576Z,2.50
2022-07-28T20:23:18.687Z,2.60
2022-07-28T20:26:05.947Z,2.40
2022-07-28T20:28:55.469Z,2.47
2022-07-28T20:31:42.518Z,2.10
2022-07-28T20:34:30.211Z,2.20
2022-07-28T20:37:27.838Z,2.60
2022-07-28T20:40:23.797Z,2.53
2022-07-28T20:43:11.186Z,2.60
2022-07-28T20:46:00.100Z,2.40
2022-07-28T20:48:47.232Z,2.53
2022-07-28T20:51:34.585Z,2.63
2022-07-28T20:54:22.344Z,2.47
2022-07-28T20:57:09.429Z,2.50
2022-07-28T20:59:56.688Z,2.22
2022-07-28T21:02:45.509Z,2.67
2022-07-28T21:05:35.818Z,2.28
2022-07-28T21:08:23.529Z,2.30
2022-07-28T21:11:11.072Z,2.63
2022-07-28T21:13:59.044Z,2.47
2022-07-28T21:16:46.369Z,2.35
2022-07-28T21:19:35.021Z,2.30
2022-07-28T21:22:22.507Z,2.33
2022-07-28T21:25:10.510Z,2.60
2022-07-28T21:28:14.949Z,2.50
2022-07-28T21:31:02.018Z,2.53
2022-07-28T21:33:49.331Z,2.58
2022-07-28T21:36:39.431Z,2.50
2022-07-28T21:39:26.575Z,2.58
2022-07-28T21:42:13.618Z,2.47
2022-07-28T21:45:00.944Z,2.45
2022-07-28T21:47:48.538Z,2.58
2022-07-28T21:50:38.240Z,2.15
2022-07-28T21:53:27.002Z,2.38
2022-07-28T21:56:14.494Z,2.40
2022-07-28T21:59:01.799Z,2.70
2022-07-28T22:01:49.233Z,2.50
2022-07-28T22:04:36.289Z,2.50
2022-07-28T22:07:23.336Z,2.40
2022-07-28T22:10:12.279Z,2.67
2022-07-28T22:13:00.588Z,2.40
2022-07-28T22:15:48.036Z,2.58
2022-07-28T22:18:35.495Z,2.60
2022-07-28T22:21:22.942Z,2.45
2022-07-28T22:24:10.382Z,2.53
2022-07-28T22:26:59.310Z,2.50
2022-07-28T22:29:51.580Z,2.50
2022-07-28T22:32:39.947Z,2.50
2022-07-28T22:35:27.229Z,2.25
2022-07-28T22:38:14.490Z,2.35
2022-07-28T22:41:01.777Z,2.70
2022-07-28T22:43:50.412Z,2.40
2022-07-28T22:46:37.511Z,2.45
2022-07-28T22:49:25.210Z,2.35
2022-07-28T22:52:12.306Z,2.30
2022-07-28T22:55:00.151Z,2.40
2022-07-28T22:57:47.518Z,2.50
2022-07-28T23:00:36.788Z,2.35
2022-07-28T23:03:23.965Z,2.60
2022-07-28T23:06:11.381Z,2.47
2022-07-28T23:08:58.443Z,2.58
2022-07-28T23:11:55.726Z,2.30
2022-07-28T23:14:42.994Z,2.38
2022-07-28T23:17:31.458Z,2.20
2022-07-28T23:20:18.851Z,2.90
2022-07-28T23:23:06.255Z,2.30
2022-07-28T23:25:53.728Z,2.60
2022-07-28T23:28:41.162Z,2.13
2022-07-28T23:31:28.796Z,2.50
2022-07-28T23:34:17.943Z,2.20
2022-07-28T23:37:05.416Z,2.30
2022-07-28T23:39:52.888Z,2.40
2022-07-28T23:42:40.381Z,2.30
2022-07-28T23:45:28.265Z,2.40
2022-07-28T23:48:15.288Z,2.40
2022-07-28T23:51:03.873Z,2.65
2022-07-28T23:53:56.013Z,2.60
2022-07-28T23:56:43.905Z,2.40
2022-07-28T23:59:30.926Z,2.53
